Time;durP1;ratioP1;P1;durP2;ratioP2;P2;SDS_P1;SDS_P2;PMS_P1;PMS_P2;Temp;Humidity;BMP_temperature;BMP_pressure;BME280_temperature;BME280_humidity;BME280_pressure;Samples;Min_cycle;Max_cycle;Signal;HPM_P1;HPM_P2
2023/12/28 00:01:24;;;;;;;0.00;0.00;;;2.70;99.90;;;;;;5052692;28;20180;-67
2023/12/28 00:03:50;;;;;;;0.00;0.00;;;2.60;99.90;;;;;;5052644;28;20186;-68
2023/12/28 00:06:15;;;;;;;0.08;0.08;;;2.60;99.90;;;;;;5052504;28;20170;-67
2023/12/28 00:08:41;;;;;;;0.00;0.00;;;2.60;99.90;;;;;;5052389;28;20228;-67
2023/12/28 00:11:07;;;;;;;0.00;0.00;;;2.60;99.90;;;;;;5051045;28;20235;-67
2023/12/28 00:13:33;;;;;;;0.00;0.00;;;2.60;99.90;;;;;;5051190;28;20178;-66
2023/12/28 00:15:58;;;;;;;0.00;0.00;;;2.60;99.90;;;;;;5051803;28;20257;-67
2023/12/28 00:18:24;;;;;;;0.00;0.00;;;2.50;99.90;;;;;;5052288;28;20268;-67
2023/12/28 00:20:50;;;;;;;0.43;0.43;;;2.40;99.90;;;;;;5051112;28;20261;-67
2023/12/28 00:23:15;;;;;;;0.00;0.00;;;2.40;99.90;;;;;;5052223;28;20579;-67
2023/12/28 00:25:41;;;;;;;0.00;0.00;;;2.40;99.90;;;;;;5052077;28;20525;-67
2023/12/28 00:28:07;;;;;;;0.00;0.00;;;2.30;99.90;;;;;;5051970;28;20209;-67
2023/12/28 00:30:32;;;;;;;0.20;0.20;;;2.30;99.90;;;;;;5052136;28;20529;-67
2023/12/28 00:32:58;;;;;;;0.00;0.00;;;2.30;99.90;;;;;;5051940;28;20280;-67
2023/12/28 00:35:23;;;;;;;0.00;0.00;;;2.30;99.90;;;;;;5051992;28;20176;-66
2023/12/28 00:37:49;;;;;;;0.00;0.00;;;2.30;99.90;;;;;;5051883;28;20186;-67
2023/12/28 00:40:14;;;;;;;0.10;0.10;;;2.20;99.90;;;;;;5051727;28;20253;-67
2023/12/28 00:42:43;;;;;;;0.55;0.55;;;2.20;99.90;;;;;;5051797;28;20213;-67
2023/12/28 00:45:09;;;;;;;0.03;0.03;;;2.20;99.90;;;;;;5051750;28;20173;-67
2023/12/28 00:47:35;;;;;;;0.55;0.55;;;2.20;99.90;;;;;;5051672;28;20572;-67
2023/12/28 00:50:01;;;;;;;0.08;0.08;;;2.20;99.90;;;;;;5051591;28;20173;-66
2023/12/28 00:52:26;;;;;;;0.00;0.00;;;2.20;99.90;;;;;;5051766;28;20204;-68
2023/12/28 00:54:52;;;;;;;0.52;0.52;;;2.20;99.90;;;;;;5051541;28;20691;-68
2023/12/28 00:57:17;;;;;;;0.15;0.15;;;2.20;99.90;;;;;;5051664;28;20185;-66
2023/12/28 00:59:43;;;;;;;0.00;0.00;;;2.20;99.90;;;;;;5051424;28;20196;-67
2023/12/28 01:02:09;;;;;;;0.00;0.00;;;2.20;99.90;;;;;;5051716;28;20261;-67
2023/12/28 01:04:35;;;;;;;0.10;0.10;;;2.20;99.90;;;;;;5051618;28;20181;-67
2023/12/28 01:07:02;;;;;;;0.03;0.03;;;2.10;99.90;;;;;;5051276;28;20209;-67
2023/12/28 01:09:28;;;;;;;0.00;0.00;;;2.10;99.90;;;;;;5051441;28;20633;-67
2023/12/28 01:11:53;;;;;;;0.00;0.00;;;2.10;99.90;;;;;;5051356;28;20185;-67
2023/12/28 01:14:19;;;;;;;0.00;0.00;;;2.10;99.90;;;;;;5051363;28;20220;-67
2023/12/28 01:16:44;;;;;;;0.00;0.00;;;2.10;99.90;;;;;;5051398;28;20640;-67
2023/12/28 01:19:10;;;;;;;0.00;0.00;;;2.10;99.90;;;;;;5051432;28;20231;-67
2023/12/28 01:21:36;;;;;;;0.35;0.35;;;2.10;99.90;;;;;;5050122;28;20178;-67
2023/12/28 01:24:01;;;;;;;0.00;0.00;;;2.10;99.90;;;;;;5051205;28;20216;-67
2023/12/28 01:26:27;;;;;;;0.00;0.00;;;2.10;99.90;;;;;;5051142;28;20181;-67
2023/12/28 01:28:52;;;;;;;0.00;0.00;;;2.10;99.90;;;;;;5053039;28;20665;-67
2023/12/28 01:31:18;;;;;;;0.00;0.00;;;2.10;99.90;;;;;;5055506;28;20177;-67
2023/12/28 01:33:43;;;;;;;0.43;0.43;;;2.10;99.90;;;;;;5055313;28;20203;-67
2023/12/28 01:36:17;;;;;;;0.00;0.00;;;2.10;99.90;;;;;;5055241;28;20169;-67
2023/12/28 01:38:43;;;;;;;0.00;0.00;;;2.00;99.90;;;;;;5055119;28;20560;-67
2023/12/28 01:41:09;;;;;;;0.00;0.00;;;2.10;99.90;;;;;;5055234;28;20185;-67
2023/12/28 01:43:34;;;;;;;0.00;0.00;;;2.10;99.90;;;;;;5055115;28;20263;-67
2023/12/28 01:46:00;;;;;;;0.00;0.00;;;2.00;99.90;;;;;;5055003;28;20179;-67
2023/12/28 01:48:26;;;;;;;0.10;0.10;;;2.00;99.90;;;;;;5055094;28;20251;-68
2023/12/28 01:50:52;;;;;;;0.10;0.10;;;2.10;99.90;;;;;;5055119;28;20172;-67
2023/12/28 01:53:18;;;;;;;0.00;0.00;;;2.10;99.90;;;;;;5055114;28;20173;-67
2023/12/28 01:55:43;;;;;;;0.00;0.00;;;2.10;99.90;;;;;;5055013;28;20177;-67
2023/12/28 01:58:10;;;;;;;0.00;0.00;;;2.30;99.90;;;;;;5054896;28;20224;-67
2023/12/28 02:00:38;;;;;;;0.00;0.00;;;2.40;99.90;;;;;;5054936;28;20169;-67
2023/12/28 02:03:06;;;;;;;0.00;0.00;;;2.70;99.90;;;;;;5054811;28;20252;-67
2023/12/28 02:05:33;;;;;;;0.00;0.00;;;3.10;99.90;;;;;;5054753;28;20640;-67
2023/12/28 02:07:58;;;;;;;0.00;0.00;;;3.60;99.90;;;;;;5054598;28;20225;-67
2023/12/28 02:10:24;;;;;;;0.00;0.00;;;3.90;99.90;;;;;;5054848;28;20187;-67
2023/12/28 02:12:49;;;;;;;0.00;0.00;;;4.30;99.90;;;;;;5054567;28;20178;-67
2023/12/28 02:15:16;;;;;;;0.00;0.00;;;4.50;99.90;;;;;;5054819;28;20247;-66
2023/12/28 02:17:56;;;;;;;0.00;0.00;;;4.70;99.90;;;;;;5053122;28;20652;-66
2023/12/28 02:20:23;;;;;;;0.00;0.00;;;4.90;99.90;;;;;;5054462;28;20180;-66
2023/12/28 02:22:49;;;;;;;0.00;0.00;;;5.10;99.90;;;;;;5054348;28;20209;-65
2023/12/28 02:25:15;;;;;;;0.00;0.00;;;5.30;99.90;;;;;;5054633;28;20185;-65
2023/12/28 02:27:42;;;;;;;0.00;0.00;;;5.40;99.90;;;;;;5054270;28;20216;-66
2023/12/28 02:30:09;;;;;;;0.00;0.00;;;5.50;99.90;;;;;;5054339;28;20318;-66
2023/12/28 02:33:07;;;;;;;0.00;0.00;;;5.70;99.90;;;;;;5054022;28;20260;-66
2023/12/28 02:35:39;;;;;;;0.00;0.00;;;5.90;99.90;;;;;;5054046;28;20630;-66
2023/12/28 02:38:15;;;;;;;0.00;0.00;;;6.10;99.90;;;;;;5054134;28;20637;-65
2023/12/28 02:40:43;;;;;;;0.00;0.00;;;6.40;99.90;;;;;;5053700;28;20225;-66
2023/12/28 02:43:11;;;;;;;0.00;0.00;;;6.60;99.90;;;;;;5054124;28;20633;-66
2023/12/28 02:45:37;;;;;;;0.00;0.00;;;6.80;99.90;;;;;;5054077;28;20182;-67
2023/12/28 02:48:04;;;;;;;0.00;0.00;;;7.20;98.90;;;;;;5053919;28;20220;-66
2023/12/28 02:50:32;;;;;;;0.00;0.00;;;7.40;98.70;;;;;;5054096;28;20634;-66
2023/12/28 02:52:58;;;;;;;0.00;0.00;;;7.60;98.40;;;;;;5053947;28;20173;-66
2023/12/28 02:55:24;;;;;;;0.00;0.00;;;7.70;98.20;;;;;;5053926;28;20204;-66
2023/12/28 02:57:50;;;;;;;0.00;0.00;;;7.80;98.20;;;;;;5053869;28;20173;-66
2023/12/28 03:00:16;;;;;;;0.00;0.00;;;7.90;98.10;;;;;;5053841;28;20173;-67
2023/12/28 03:02:42;;;;;;;0.00;0.00;;;7.90;97.40;;;;;;5053661;28;20676;-67
2023/12/28 03:05:08;;;;;;;0.00;0.00;;;8.00;97.70;;;;;;5053722;28;20193;-67
2023/12/28 03:07:34;;;;;;;0.00;0.00;;;8.10;97.50;;;;;;5053684;28;20251;-67
2023/12/28 03:10:00;;;;;;;0.00;0.00;;;8.10;97.60;;;;;;5053557;28;20185;-67
2023/12/28 03:12:27;;;;;;;0.00;0.00;;;8.20;97.90;;;;;;5053736;28;20170;-66
2023/12/28 03:14:53;;;;;;;0.00;0.00;;;8.20;98.30;;;;;;5053674;28;20205;-66
2023/12/28 03:17:18;;;;;;;0.00;0.00;;;8.30;98.10;;;;;;5053509;28;20213;-66
2023/12/28 03:19:44;;;;;;;0.20;0.20;;;8.40;98.30;;;;;;5053427;28;20190;-67
2023/12/28 03:22:09;;;;;;;0.00;0.00;;;8.40;98.70;;;;;;5053600;28;20261;-66
2023/12/28 03:24:38;;;;;;;0.00;0.00;;;8.40;99.00;;;;;;5052097;28;20177;-66
2023/12/28 03:27:04;;;;;;;0.00;0.00;;;8.40;99.00;;;;;;5052032;28;20681;-66
2023/12/28 03:29:30;;;;;;;0.00;0.00;;;8.40;99.10;;;;;;5053305;28;20184;-67
2023/12/28 03:31:55;;;;;;;0.00;0.00;;;8.40;99.30;;;;;;5053212;28;20177;-66
2023/12/28 03:34:22;;;;;;;0.00;0.00;;;8.40;99.40;;;;;;5053449;28;20177;-66
2023/12/28 03:36:48;;;;;;;0.00;0.00;;;8.40;99.20;;;;;;5053102;28;20178;-66
2023/12/28 03:39:13;;;;;;;0.00;0.00;;;8.40;98.80;;;;;;5052940;28;20225;-66
2023/12/28 03:41:39;;;;;;;0.00;0.00;;;8.50;98.80;;;;;;5053139;28;20254;-65
2023/12/28 03:44:04;;;;;;;0.00;0.00;;;8.50;99.40;;;;;;5052904;28;20581;-65
2023/12/28 03:46:30;;;;;;;0.00;0.00;;;8.50;99.30;;;;;;5052989;28;20625;-66
2023/12/28 03:48:56;;;;;;;0.00;0.00;;;8.50;99.30;;;;;;5052825;28;20181;-66
2023/12/28 03:51:21;;;;;;;0.00;0.00;;;8.60;99.40;;;;;;5052210;28;20205;-66
2023/12/28 03:53:47;;;;;;;0.00;0.00;;;8.60;99.30;;;;;;5052791;28;20311;-66
2023/12/28 03:56:23;;;;;;;0.00;0.00;;;8.60;99.20;;;;;;5052881;28;20641;-66
2023/12/28 03:58:50;;;;;;;0.00;0.00;;;8.60;99.30;;;;;;5052575;28;20181;-66
2023/12/28 04:01:17;;;;;;;0.00;0.00;;;8.60;99.50;;;;;;5052497;28;20595;-66
2023/12/28 04:03:43;;;;;;;0.00;0.00;;;8.60;99.60;;;;;;5051108;28;20209;-66
2023/12/28 04:06:08;;;;;;;0.00;0.00;;;8.50;99.70;;;;;;5051270;28;20637;-66
2023/12/28 04:08:34;;;;;;;0.00;0.00;;;8.50;99.90;;;;;;5051119;28;20267;-66
2023/12/28 04:10:59;;;;;;;0.00;0.00;;;8.40;99.90;;;;;;5052371;28;20264;-67
2023/12/28 04:13:25;;;;;;;0.00;0.00;;;8.40;99.90;;;;;;5052350;28;20207;-66
2023/12/28 04:15:50;;;;;;;0.00;0.00;;;8.40;99.90;;;;;;5052299;28;20197;-66
2023/12/28 04:18:16;;;;;;;0.00;0.00;;;8.40;99.90;;;;;;5052312;28;20184;-66
2023/12/28 04:20:44;;;;;;;0.00;0.00;;;8.40;99.90;;;;;;5052210;28;20201;-66
2023/12/28 04:23:10;;;;;;;0.13;0.13;;;8.60;99.90;;;;;;5052184;28;20655;-66
2023/12/28 04:25:36;;;;;;;0.00;0.00;;;8.80;99.90;;;;;;5050891;28;20177;-66
2023/12/28 04:28:02;;;;;;;0.00;0.00;;;9.00;99.90;;;;;;5050658;28;20240;-66
2023/12/28 04:30:28;;;;;;;0.00;0.00;;;9.10;99.70;;;;;;5052077;28;20531;-66
2023/12/28 04:32:53;;;;;;;0.00;0.00;;;9.40;99.40;;;;;;5052047;28;20186;-67
2023/12/28 04:35:19;;;;;;;0.00;0.00;;;9.50;99.90;;;;;;5050934;28;20543;-66
2023/12/28 04:37:45;;;;;;;0.00;0.00;;;9.60;99.90;;;;;;5051663;28;20174;-65
2023/12/28 04:40:10;;;;;;;0.00;0.00;;;9.70;99.90;;;;;;5051667;28;20225;-64
2023/12/28 04:42:36;;;;;;;0.00;0.00;;;9.70;99.90;;;;;;5051871;28;20204;-64
2023/12/28 04:45:02;;;;;;;0.00;0.00;;;9.70;99.90;;;;;;5051648;28;20694;-66
2023/12/28 04:47:27;;;;;;;0.00;0.00;;;9.70;99.90;;;;;;5051670;28;20252;-66
2023/12/28 04:49:53;;;;;;;0.00;0.00;;;9.70;99.90;;;;;;5050545;28;20291;-65
2023/12/28 04:52:18;;;;;;;0.00;0.00;;;9.70;99.90;;;;;;5052009;28;20231;-66
2023/12/28 04:54:44;;;;;;;0.00;0.00;;;9.70;99.90;;;;;;5051796;28;20203;-66
2023/12/28 04:57:09;;;;;;;0.00;0.00;;;9.80;99.90;;;;;;5050376;28;20644;-66
2023/12/28 04:59:41;;;;;;;0.00;0.00;;;9.80;99.90;;;;;;5051586;28;20239;-66
2023/12/28 05:02:07;;;;;;;0.00;0.00;;;9.70;99.90;;;;;;5051362;28;20287;-67
2023/12/28 05:04:33;;;;;;;0.00;0.00;;;9.70;99.90;;;;;;5051497;28;20177;-67
2023/12/28 05:06:58;;;;;;;0.00;0.00;;;9.60;99.90;;;;;;5051315;28;20556;-66
2023/12/28 05:09:24;;;;;;;0.00;0.00;;;9.50;99.90;;;;;;5051508;28;20196;-66
2023/12/28 05:11:50;;;;;;;0.00;0.00;;;9.40;99.90;;;;;;5051372;28;20169;-66
2023/12/28 05:14:15;;;;;;;0.00;0.00;;;9.40;99.90;;;;;;5051525;28;20213;-66
2023/12/28 05:16:41;;;;;;;0.00;0.00;;;9.30;99.90;;;;;;5050161;28;20248;-66
2023/12/28 05:19:06;;;;;;;0.00;0.00;;;9.30;99.90;;;;;;5051213;28;20173;-67
2023/12/28 05:21:32;;;;;;;0.00;0.00;;;9.30;99.90;;;;;;5051072;28;20200;-67
2023/12/28 05:23:57;;;;;;;0.00;0.00;;;9.30;99.90;;;;;;5051123;28;20204;-67
2023/12/28 05:26:24;;;;;;;0.10;0.08;;;9.30;99.90;;;;;;5049769;28;20302;-66
2023/12/28 05:28:49;;;;;;;0.00;0.00;;;9.30;99.90;;;;;;5051161;28;20165;-67
2023/12/28 05:31:15;;;;;;;0.00;0.00;;;9.20;99.90;;;;;;5051408;28;20590;-67
2023/12/28 05:33:40;;;;;;;0.00;0.00;;;9.20;99.90;;;;;;5049420;28;20272;-66
2023/12/28 05:36:06;;;;;;;0.00;0.00;;;9.20;99.90;;;;;;5050233;28;20536;-67
2023/12/28 05:38:32;;;;;;;0.00;0.00;;;9.20;99.90;;;;;;5050634;28;20184;-67
2023/12/28 05:40:57;;;;;;;0.00;0.00;;;9.20;99.90;;;;;;5050793;28;20268;-67
2023/12/28 05:43:23;;;;;;;0.00;0.00;;;9.10;99.90;;;;;;5049437;28;20578;-67
2023/12/28 05:45:48;;;;;;;0.00;0.00;;;9.10;99.90;;;;;;5050950;28;20276;-67
2023/12/28 05:48:14;;;;;;;0.00;0.00;;;9.10;99.90;;;;;;5050741;28;20570;-66
2023/12/28 05:50:40;;;;;;;0.00;0.00;;;9.10;99.90;;;;;;5050506;28;20189;-66
2023/12/28 05:53:05;;;;;;;0.00;0.00;;;9.00;99.90;;;;;;5050262;28;20216;-66
2023/12/28 05:55:31;;;;;;;0.00;0.00;;;9.00;99.90;;;;;;5050813;28;20201;-67
2023/12/28 05:57:56;;;;;;;0.00;0.00;;;9.00;99.90;;;;;;5050788;28;20189;-67
2023/12/28 06:00:22;;;;;;;0.88;0.10;;;9.00;99.90;;;;;;5050462;28;20211;-67
2023/12/28 06:02:51;;;;;;;0.00;0.00;;;9.00;99.90;;;;;;5050831;28;20185;-67
2023/12/28 06:05:20;;;;;;;0.00;0.00;;;9.00;99.90;;;;;;5050953;28;20218;-67
2023/12/28 06:07:45;;;;;;;0.00;0.00;;;9.00;99.90;;;;;;5050697;28;20209;-67
2023/12/28 06:10:11;;;;;;;0.00;0.00;;;9.00;99.90;;;;;;5050877;28;20226;-66
2023/12/28 06:12:36;;;;;;;0.00;0.00;;;9.00;99.90;;;;;;5050890;28;20535;-67
2023/12/28 06:15:03;;;;;;;0.00;0.00;;;8.90;99.90;;;;;;5052427;28;20657;-67
2023/12/28 06:17:28;;;;;;;0.00;0.00;;;8.90;99.90;;;;;;5054592;28;20220;-67
2023/12/28 06:19:54;;;;;;;0.00;0.00;;;8.90;99.90;;;;;;5054321;28;20763;-67
2023/12/28 06:22:19;;;;;;;0.10;0.10;;;8.90;99.90;;;;;;5054505;28;20637;-67
2023/12/28 06:24:45;;;;;;;0.00;0.00;;;8.80;99.90;;;;;;5053998;28;20174;-66
2023/12/28 06:27:11;;;;;;;0.00;0.00;;;8.80;99.90;;;;;;5054226;28;20536;-67
2023/12/28 06:29:36;;;;;;;0.00;0.00;;;8.70;99.90;;;;;;5053345;28;20663;-65
2023/12/28 06:32:02;;;;;;;0.00;0.00;;;8.70;99.90;;;;;;5053892;28;20300;-66
2023/12/28 06:34:27;;;;;;;0.00;0.00;;;8.70;99.90;;;;;;5054292;28;20170;-66
2023/12/28 06:36:53;;;;;;;0.00;0.00;;;8.60;99.90;;;;;;5052748;28;20580;-66
2023/12/28 06:39:19;;;;;;;0.00;0.00;;;8.60;99.90;;;;;;5053455;28;20269;-65
2023/12/28 06:41:48;;;;;;;0.00;0.00;;;8.60;99.90;;;;;;5052748;28;20181;-66
2023/12/28 06:44:14;;;;;;;0.00;0.00;;;8.60;99.90;;;;;;5051795;28;20200;-65
2023/12/28 06:46:40;;;;;;;0.00;0.00;;;8.50;99.90;;;;;;5053096;28;20638;-65
2023/12/28 06:49:05;;;;;;;0.00;0.00;;;8.50;99.90;;;;;;5053223;28;20261;-65
2023/12/28 06:51:31;;;;;;;0.00;0.00;;;8.50;99.90;;;;;;5053436;28;20242;-65
2023/12/28 06:53:57;;;;;;;0.00;0.00;;;8.50;99.90;;;;;;5053761;28;20238;-66
2023/12/28 06:56:22;;;;;;;0.00;0.00;;;8.40;99.90;;;;;;5052623;28;20181;-67
2023/12/28 06:58:48;;;;;;;0.00;0.00;;;8.40;99.90;;;;;;5053742;28;20178;-67
2023/12/28 07:01:13;;;;;;;0.00;0.00;;;8.40;99.90;;;;;;5053834;28;20640;-66
2023/12/28 07:03:39;;;;;;;0.00;0.00;;;8.40;99.90;;;;;;5053777;28;20192;-66
2023/12/28 07:06:05;;;;;;;0.00;0.00;;;8.40;99.90;;;;;;5053169;28;20504;-66
2023/12/28 07:08:31;;;;;;;0.00;0.00;;;8.30;99.90;;;;;;5051590;28;20567;-66
2023/12/28 07:10:57;;;;;;;0.00;0.00;;;8.30;99.90;;;;;;5053122;28;20184;-66
2023/12/28 07:13:22;;;;;;;0.00;0.00;;;8.20;99.90;;;;;;5053016;28;20180;-66
2023/12/28 07:15:48;;;;;;;0.00;0.00;;;8.10;99.90;;;;;;5052742;28;20177;-66
2023/12/28 07:18:14;;;;;;;0.00;0.00;;;8.00;99.90;;;;;;5053317;28;20247;-65
2023/12/28 07:20:39;;;;;;;0.10;0.10;;;7.90;99.90;;;;;;5053166;28;20251;-66
2023/12/28 07:23:05;;;;;;;0.00;0.00;;;7.90;99.90;;;;;;5053187;28;20185;-66
2023/12/28 07:25:31;;;;;;;0.00;0.00;;;7.90;99.90;;;;;;5052712;28;20201;-66
2023/12/28 07:27:56;;;;;;;0.00;0.00;;;7.80;99.90;;;;;;5052804;28;20632;-66
2023/12/28 07:30:22;;;;;;;0.00;0.00;;;7.80;99.90;;;;;;5052095;28;20581;-66
2023/12/28 07:32:47;;;;;;;0.05;0.05;;;7.80;99.90;;;;;;5053072;28;20690;-66
2023/12/28 07:35:13;;;;;;;0.00;0.00;;;7.70;99.90;;;;;;5053171;28;20344;-67
2023/12/28 07:37:38;;;;;;;0.00;0.00;;;7.70;99.90;;;;;;5053156;28;20235;-66
2023/12/28 07:40:04;;;;;;;0.00;0.00;;;7.70;99.90;;;;;;5052965;28;20229;-66
2023/12/28 07:42:30;;;;;;;0.00;0.00;;;7.70;99.90;;;;;;5053266;28;20252;-73
2023/12/28 07:44:56;;;;;;;0.10;0.10;;;7.60;99.90;;;;;;5053210;28;20808;-71
2023/12/28 07:47:22;;;;;;;0.00;0.00;;;7.70;99.90;;;;;;5053079;28;20243;-74
2023/12/28 07:49:48;;;;;;;0.00;0.00;;;7.70;99.90;;;;;;5053250;28;20177;-73
2023/12/28 07:52:13;;;;;;;0.10;0.10;;;7.70;99.90;;;;;;5053442;28;20544;-70
2023/12/28 07:54:39;;;;;;;0.00;0.00;;;7.70;99.90;;;;;;5053063;28;20649;-69
2023/12/28 07:57:04;;;;;;;0.00;0.00;;;7.80;99.90;;;;;;5051317;28;20193;-69
2023/12/28 07:59:30;;;;;;;0.00;0.00;;;7.70;99.90;;;;;;5052746;28;20174;-70
2023/12/28 08:01:56;;;;;;;0.00;0.00;;;7.70;99.90;;;;;;5052783;28;20177;-69
2023/12/28 08:04:22;;;;;;;0.00;0.00;;;7.70;99.90;;;;;;5052629;28;20218;-70
2023/12/28 08:06:47;;;;;;;0.00;0.00;;;7.70;99.90;;;;;;5052537;28;20898;-69
2023/12/28 08:09:13;;;;;;;0.00;0.00;;;7.70;99.90;;;;;;5052699;28;20756;-70
2023/12/28 08:11:38;;;;;;;0.00;0.00;;;7.70;99.90;;;;;;5052479;28;20213;-67
2023/12/28 08:14:04;;;;;;;0.00;0.00;;;7.70;99.90;;;;;;5052369;28;20272;-67
2023/12/28 08:16:30;;;;;;;0.00;0.00;;;7.70;99.90;;;;;;5052382;28;20630;-67
2023/12/28 08:18:55;;;;;;;0.20;0.20;;;7.70;99.90;;;;;;5052328;28;20188;-67
2023/12/28 08:21:21;;;;;;;0.00;0.00;;;7.70;99.90;;;;;;5051062;28;20677;-66
2023/12/28 08:23:46;;;;;;;0.00;0.00;;;7.70;99.90;;;;;;5052057;28;20182;-66
2023/12/28 08:26:12;;;;;;;0.00;0.00;;;7.70;99.90;;;;;;5051086;28;20174;-67
2023/12/28 08:28:37;;;;;;;0.10;0.10;;;7.70;99.90;;;;;;5052100;28;20213;-67
2023/12/28 08:31:04;;;;;;;0.77;0.22;;;7.70;99.90;;;;;;5051950;28;20174;-68
2023/12/28 08:33:29;;;;;;;0.13;0.13;;;7.70;99.90;;;;;;5052117;28;20223;-67
2023/12/28 08:35:55;;;;;;;0.20;0.20;;;7.70;99.90;;;;;;5052077;28;20177;-68
2023/12/28 08:38:20;;;;;;;0.00;0.00;;;7.70;99.90;;;;;;5051831;28;20221;-67
2023/12/28 08:40:46;;;;;;;0.00;0.00;;;7.80;99.90;;;;;;5051761;28;20239;-66
2023/12/28 08:43:11;;;;;;;0.00;0.00;;;7.80;99.90;;;;;;5051784;28;20173;-66
2023/12/28 08:45:37;;;;;;;0.00;0.00;;;7.80;99.90;;;;;;5050606;28;20629;-67
2023/12/28 08:48:04;;;;;;;0.00;0.00;;;7.80;99.90;;;;;;5051495;28;20248;-67
2023/12/28 08:50:30;;;;;;;0.00;0.00;;;7.90;99.90;;;;;;5051884;28;20169;-67
2023/12/28 08:52:56;;;;;;;0.00;0.00;;;7.90;99.90;;;;;;5051689;28;20173;-68
2023/12/28 08:55:22;;;;;;;0.65;0.22;;;7.90;99.90;;;;;;5052162;28;20660;-67
2023/12/28 08:57:47;;;;;;;0.20;0.20;;;7.90;99.90;;;;;;5051798;28;20256;-68
2023/12/28 09:00:14;;;;;;;0.10;0.05;;;7.90;99.90;;;;;;5051843;28;20170;-67
2023/12/28 09:02:40;;;;;;;0.00;0.00;;;7.90;99.90;;;;;;5051767;28;20527;-67
2023/12/28 09:05:06;;;;;;;0.08;0.08;;;7.90;99.90;;;;;;5051538;28;20584;-67
2023/12/28 09:07:32;;;;;;;0.10;0.10;;;7.90;99.90;;;;;;5051769;28;20213;-68
2023/12/28 09:09:58;;;;;;;0.00;0.00;;;7.90;99.90;;;;;;5051567;28;20655;-68
2023/12/28 09:12:23;;;;;;;0.00;0.00;;;7.90;99.90;;;;;;5051411;28;20543;-67
2023/12/28 09:14:52;;;;;;;0.00;0.00;;;7.90;99.90;;;;;;5051267;28;20173;-68
2023/12/28 09:17:20;;;;;;;0.00;0.00;;;7.90;99.90;;;;;;5052024;28;20189;-67
2023/12/28 09:19:46;;;;;;;0.00;0.00;;;7.90;99.90;;;;;;5051415;28;20183;-68
2023/12/28 09:22:11;;;;;;;0.00;0.00;;;7.90;99.90;;;;;;5051576;28;20173;-68
2023/12/28 09:24:37;;;;;;;0.57;0.57;;;7.90;99.90;;;;;;5051410;28;20279;-68
2023/12/28 09:27:03;;;;;;;0.15;0.15;;;7.90;99.90;;;;;;5051126;28;20232;-68
2023/12/28 09:29:28;;;;;;;0.00;0.00;;;8.00;99.90;;;;;;5051407;28;20235;-68
2023/12/28 09:31:54;;;;;;;0.00;0.00;;;8.00;99.90;;;;;;5051324;28;20181;-68
2023/12/28 09:34:19;;;;;;;0.00;0.00;;;7.90;99.90;;;;;;5051189;28;20243;-67
2023/12/28 09:36:45;;;;;;;0.00;0.00;;;8.00;99.90;;;;;;5051020;28;20268;-67
2023/12/28 09:39:11;;;;;;;0.00;0.00;;;7.90;99.90;;;;;;5050922;28;20236;-67
2023/12/28 09:41:42;;;;;;;0.00;0.00;;;8.00;99.90;;;;;;5051242;28;20184;-67
2023/12/28 09:44:11;;;;;;;0.00;0.00;;;8.00;99.90;;;;;;5051115;28;20655;-67
2023/12/28 09:46:38;;;;;;;0.00;0.00;;;8.00;99.90;;;;;;5051106;28;20272;-67
2023/12/28 09:49:04;;;;;;;0.00;0.00;;;8.10;99.90;;;;;;5051232;28;20185;-66
2023/12/28 09:51:30;;;;;;;0.00;0.00;;;8.10;99.90;;;;;;5055207;28;20165;-67
2023/12/28 09:53:56;;;;;;;0.00;0.00;;;8.10;99.90;;;;;;5055090;28;20208;-67
2023/12/28 09:56:23;;;;;;;0.00;0.00;;;8.10;99.90;;;;;;5055108;28;20545;-67
2023/12/28 09:58:50;;;;;;;0.00;0.00;;;8.20;99.90;;;;;;5054977;28;20180;-67
2023/12/28 10:01:17;;;;;;;0.00;0.00;;;8.20;99.90;;;;;;5055137;28;20232;-67
2023/12/28 10:03:43;;;;;;;0.55;0.55;;;8.30;99.90;;;;;;5053519;28;20579;-67
2023/12/28 10:06:08;;;;;;;0.00;0.00;;;8.40;99.90;;;;;;5054721;28;20264;-67
2023/12/28 10:08:35;;;;;;;0.00;0.00;;;8.40;99.90;;;;;;5054733;28;20209;-67
2023/12/28 10:11:02;;;;;;;0.00;0.00;;;8.50;99.90;;;;;;5054737;28;20307;-67
2023/12/28 10:13:28;;;;;;;0.00;0.00;;;8.50;99.90;;;;;;5054916;28;20268;-67
2023/12/28 10:15:57;;;;;;;0.00;0.00;;;8.50;99.90;;;;;;5054667;28;20276;-67
2023/12/28 10:18:23;;;;;;;0.00;0.00;;;8.60;99.90;;;;;;5053271;28;20209;-67
2023/12/28 10:20:53;;;;;;;0.00;0.00;;;8.60;99.90;;;;;;5053326;28;20230;-67
2023/12/28 10:23:21;;;;;;;0.00;0.00;;;8.60;99.90;;;;;;5054475;28;20169;-67
2023/12/28 10:25:49;;;;;;;0.10;0.10;;;8.60;99.90;;;;;;5054371;28;20228;-67
2023/12/28 10:28:18;;;;;;;0.20;0.20;;;8.70;99.90;;;;;;5054302;28;20217;-67
2023/12/28 10:30:44;;;;;;;0.00;0.00;;;8.70;99.90;;;;;;5054222;28;20175;-67
2023/12/28 10:33:09;;;;;;;0.00;0.00;;;8.70;99.90;;;;;;5054346;28;20173;-67
2023/12/28 10:35:35;;;;;;;0.08;0.08;;;8.70;99.90;;;;;;5052882;28;20177;-67
2023/12/28 10:38:03;;;;;;;0.00;0.00;;;8.80;99.90;;;;;;5054228;28;20655;-67
2023/12/28 10:40:31;;;;;;;0.00;0.00;;;8.80;99.90;;;;;;5053825;28;20232;-68
2023/12/28 10:43:01;;;;;;;0.00;0.00;;;8.90;99.90;;;;;;5054102;28;20185;-67
2023/12/28 10:45:29;;;;;;;0.00;0.00;;;8.80;99.90;;;;;;5054004;28;20215;-68
2023/12/28 10:48:04;;;;;;;0.00;0.00;;;8.80;99.90;;;;;;5053879;28;20304;-68
2023/12/28 10:50:37;;;;;;;0.00;0.00;;;8.80;99.90;;;;;;5054127;28;20235;-68
2023/12/28 10:53:14;;;;;;;0.00;0.00;;;8.80;99.90;;;;;;5053730;28;20272;-67
2023/12/28 10:56:03;;;;;;;0.00;0.00;;;8.80;99.90;;;;;;5053810;28;20173;-67
2023/12/28 10:58:57;;;;;;;0.00;0.00;;;8.90;99.90;;;;;;5053953;28;20177;-67
2023/12/28 11:01:31;;;;;;;0.00;0.00;;;9.00;99.90;;;;;;5053528;28;20189;-67
2023/12/28 11:04:10;;;;;;;0.00;0.00;;;9.00;99.90;;;;;;5053705;28;20204;-67
2023/12/28 11:06:36;;;;;;;0.00;0.00;;;9.10;99.90;;;;;;5053600;28;20894;-67
2023/12/28 11:09:03;;;;;;;0.00;0.00;;;9.10;99.90;;;;;;5053492;28;20197;-67
2023/12/28 11:11:30;;;;;;;0.00;0.00;;;9.20;99.90;;;;;;5053529;28;20260;-67
2023/12/28 11:13:56;;;;;;;0.00;0.00;;;9.30;99.90;;;;;;5053488;28;20329;-67
2023/12/28 11:16:22;;;;;;;0.00;0.00;;;9.30;99.90;;;;;;5053563;28;20170;-67
2023/12/28 11:18:49;;;;;;;0.00;0.00;;;9.40;99.90;;;;;;5053474;28;20173;-67
2023/12/28 11:21:17;;;;;;;0.00;0.00;;;9.50;99.90;;;;;;5053395;28;20657;-67
2023/12/28 11:23:44;;;;;;;0.00;0.00;;;9.60;99.90;;;;;;5053279;28;20272;-67
2023/12/28 11:26:20;;;;;;;0.00;0.00;;;9.60;99.90;;;;;;5053418;28;20256;-67
2023/12/28 11:28:46;;;;;;;0.00;0.00;;;9.70;99.90;;;;;;5052998;28;20290;-67
2023/12/28 11:31:15;;;;;;;0.00;0.00;;;9.60;99.90;;;;;;5053299;28;20633;-67
2023/12/28 11:33:50;;;;;;;0.00;0.00;;;9.60;99.90;;;;;;5053275;28;20570;-66
2023/12/28 11:36:25;;;;;;;0.00;0.00;;;9.50;99.90;;;;;;5053144;28;20189;-67
2023/12/28 11:38:55;;;;;;;0.00;0.00;;;9.40;99.90;;;;;;5051523;28;20181;-66
2023/12/28 11:41:21;;;;;;;0.00;0.00;;;9.50;99.90;;;;;;5053050;28;20629;-66
2023/12/28 11:44:05;;;;;;;0.00;0.00;;;9.40;99.90;;;;;;5052875;28;20178;-67
2023/12/28 11:46:36;;;;;;;0.00;0.00;;;9.40;99.90;;;;;;5052972;28;20168;-67
2023/12/28 11:49:09;;;;;;;0.00;0.00;;;9.30;99.90;;;;;;5052827;28;20561;-66
2023/12/28 11:51:37;;;;;;;0.00;0.00;;;9.40;99.90;;;;;;5052862;28;20188;-67
2023/12/28 11:54:03;;;;;;;0.00;0.00;;;9.40;99.90;;;;;;5052695;28;20177;-66
2023/12/28 11:56:30;;;;;;;0.00;0.00;;;9.30;99.90;;;;;;5052848;28;20177;-67
2023/12/28 11:58:55;;;;;;;0.00;0.00;;;9.30;99.90;;;;;;5052675;28;20583;-67
2023/12/28 12:01:21;;;;;;;0.00;0.00;;;9.30;99.90;;;;;;5052537;28;20182;-66
2023/12/28 12:03:48;;;;;;;0.00;0.00;;;9.30;99.90;;;;;;5052529;28;20173;-66
2023/12/28 12:06:14;;;;;;;0.00;0.00;;;9.30;99.90;;;;;;5052505;28;20173;-66
2023/12/28 12:08:39;;;;;;;0.00;0.00;;;9.30;99.90;;;;;;5052401;28;20209;-66
2023/12/28 12:11:06;;;;;;;0.00;0.00;;;9.30;99.90;;;;;;5052336;28;20186;-67
2023/12/28 12:13:33;;;;;;;0.00;0.00;;;9.30;99.90;;;;;;5052025;28;20204;-67
2023/12/28 12:15:59;;;;;;;0.00;0.00;;;9.30;99.90;;;;;;5052503;28;20191;-67
2023/12/28 12:18:25;;;;;;;0.00;0.00;;;9.30;99.90;;;;;;5052416;28;20637;-67
2023/12/28 12:20:50;;;;;;;0.35;0.20;;;9.30;99.90;;;;;;5052360;28;20188;-66
2023/12/28 12:23:16;;;;;;;0.00;0.00;;;9.30;99.90;;;;;;5052478;28;20545;-66
2023/12/28 12:25:45;;;;;;;0.00;0.00;;;9.30;99.90;;;;;;5052476;28;20626;-66
2023/12/28 12:28:10;;;;;;;0.00;0.00;;;9.30;99.90;;;;;;5052326;28;20534;-66
2023/12/28 12:30:36;;;;;;;0.00;0.00;;;9.20;99.90;;;;;;5052404;28;20180;-66
2023/12/28 12:33:02;;;;;;;0.00;0.00;;;9.20;99.90;;;;;;5052809;28;20189;-67
2023/12/28 12:35:28;;;;;;;0.00;0.00;;;9.20;99.90;;;;;;5052776;28;20170;-66
2023/12/28 12:37:54;;;;;;;0.00;0.00;;;9.20;99.90;;;;;;5053461;28;20181;-66
2023/12/28 12:40:21;;;;;;;0.00;0.00;;;9.30;99.90;;;;;;5053345;28;20251;-66
2023/12/28 12:42:53;;;;;;;0.00;0.00;;;9.20;99.90;;;;;;5053188;28;20627;-66
2023/12/28 12:45:19;;;;;;;0.00;0.00;;;9.20;99.90;;;;;;5052582;28;20170;-67
2023/12/28 12:47:46;;;;;;;0.00;0.00;;;9.20;99.90;;;;;;5052391;28;20208;-66
2023/12/28 12:50:11;;;;;;;0.00;0.00;;;9.20;99.90;;;;;;5052534;28;20189;-65
2023/12/28 12:52:38;;;;;;;0.00;0.00;;;9.20;99.90;;;;;;5052139;28;20169;-66
2023/12/28 12:55:04;;;;;;;0.22;0.22;;;9.10;99.90;;;;;;5051998;28;20181;-66